createdAt,value
2023-07-17T00:02:17.394Z,1.30
2023-07-17T00:05:12.057Z,1.30
2023-07-17T00:08:07.757Z,1.58
2023-07-17T00:11:00.414Z,1.27
2023-07-17T00:13:53.624Z,1.13
2023-07-17T00:16:46.322Z,1.20
2023-07-17T00:19:40.976Z,0.98
2023-07-17T00:22:36.552Z,1.08
2023-07-17T00:25:29.525Z,1.10
2023-07-17T00:28:22.558Z,1.25
2023-07-17T00:31:15.864Z,1.20
2023-07-17T00:34:09.585Z,1.10
2023-07-17T00:37:02.673Z,0.90
2023-07-17T00:39:57.454Z,1.00
2023-07-17T00:42:50.326Z,1.20
2023-07-17T00:45:47.092Z,1.10
2023-07-17T00:48:40.609Z,1.40
2023-07-17T00:51:34.014Z,1.10
2023-07-17T00:54:29.690Z,1.20
2023-07-17T00:57:28.671Z,1.20
2023-07-17T01:00:23.428Z,1.23
2023-07-17T01:03:16.684Z,1.15
2023-07-17T01:06:09.443Z,1.02
2023-07-17T01:09:03.169Z,0.90
2023-07-17T01:11:56.370Z,1.30
2023-07-17T01:14:50.781Z,1.20
2023-07-17T01:17:43.510Z,1.02
2023-07-17T01:20:36.479Z,1.20
2023-07-17T01:23:32.275Z,1.25
2023-07-17T01:26:25.663Z,0.93
2023-07-17T01:29:19.026Z,1.20
2023-07-17T01:32:12.867Z,1.08
2023-07-17T01:35:07.311Z,1.25
2023-07-17T01:38:00.576Z,1.10
2023-07-17T01:40:55.263Z,1.00
2023-07-17T01:43:48.510Z,1.38
2023-07-17T01:46:41.536Z,0.85
2023-07-17T01:49:34.919Z,1.00
2023-07-17T01:52:28.733Z,1.20
2023-07-17T01:55:24.669Z,0.93
2023-07-17T01:58:19.048Z,1.10
2023-07-17T02:01:12.644Z,1.10
2023-07-17T02:04:05.597Z,0.93
2023-07-17T02:06:58.403Z,0.82
2023-07-17T02:09:51.312Z,1.33
2023-07-17T02:12:44.429Z,1.05
2023-07-17T02:15:39.219Z,1.13
2023-07-17T02:18:32.824Z,1.15
2023-07-17T02:21:28.724Z,1.02
2023-07-17T02:24:21.762Z,1.20
2023-07-17T02:27:14.283Z,1.13
2023-07-17T02:30:08.636Z,1.05
2023-07-17T02:33:04.156Z,1.48
2023-07-17T02:35:57.797Z,0.90
2023-07-17T02:38:50.809Z,1.00
2023-07-17T02:41:43.670Z,1.02
2023-07-17T02:44:37.069Z,0.98
2023-07-17T02:47:30.641Z,0.98
2023-07-17T02:50:32.333Z,1.10
2023-07-17T02:53:26.844Z,1.10
2023-07-17T02:56:19.570Z,1.10
2023-07-17T02:59:13.077Z,1.20
2023-07-17T03:02:06.649Z,1.40
2023-07-17T03:04:59.737Z,1.00
2023-07-17T03:07:55.187Z,1.17
2023-07-17T03:10:48.525Z,1.00
2023-07-17T03:13:41.937Z,1.20
2023-07-17T03:16:34.875Z,1.10
2023-07-17T03:19:28.249Z,1.20
2023-07-17T03:22:21.888Z,1.30
2023-07-17T03:25:15.758Z,1.02
2023-07-17T03:28:08.404Z,1.60
2023-07-17T03:31:01.648Z,1.20
2023-07-17T03:33:57.640Z,1.08
2023-07-17T03:36:50.487Z,1.10
2023-07-17T03:39:43.298Z,1.13
2023-07-17T03:42:37.988Z,1.02
2023-07-17T03:45:31.015Z,1.23
2023-07-17T03:48:23.672Z,1.10
2023-07-17T03:51:16.786Z,1.30
2023-07-17T03:54:09.529Z,1.30
2023-07-17T03:57:02.741Z,1.20
2023-07-17T03:59:58.071Z,0.98
2023-07-17T04:02:50.481Z,1.30
2023-07-17T04:05:44.542Z,1.10
2023-07-17T04:08:37.793Z,1.00
2023-07-17T04:11:30.774Z,0.95
2023-07-17T04:14:23.892Z,0.98
2023-07-17T04:17:18.038Z,1.20
2023-07-17T04:20:14.808Z,1.25
2023-07-17T04:23:08.378Z,1.23
2023-07-17T04:26:01.827Z,1.10
2023-07-17T04:28:55.015Z,1.10
2023-07-17T04:31:47.626Z,1.00
2023-07-17T04:34:41.852Z,1.23
2023-07-17T04:37:34.883Z,1.17
2023-07-17T04:40:27.622Z,1.23
2023-07-17T04:43:21.122Z,1.20
2023-07-17T04:46:13.893Z,1.00
2023-07-17T04:49:06.725Z,1.20
2023-07-17T04:52:01.191Z,1.20
2023-07-17T04:54:54.800Z,1.15
2023-07-17T04:57:47.909Z,1.10
2023-07-17T05:00:47.109Z,1.30
2023-07-17T05:03:41.062Z,1.45
2023-07-17T05:06:33.598Z,1.10
2023-07-17T05:09:28.159Z,1.40
2023-07-17T05:12:22.419Z,1.20
2023-07-17T05:15:15.812Z,1.27
2023-07-17T05:18:08.610Z,1.10
2023-07-17T05:21:02.625Z,1.00
2023-07-17T05:23:55.870Z,1.85
2023-07-17T05:26:49.935Z,3.13
2023-07-17T05:29:44.894Z,3.47
2023-07-17T05:32:37.877Z,3.42
2023-07-17T05:35:31.718Z,4.20
2023-07-17T05:38:24.698Z,4.30
2023-07-17T05:41:18.069Z,4.30
2023-07-17T05:44:13.694Z,4.63
2023-07-17T05:47:07.000Z,4.22
2023-07-17T05:50:00.368Z,4.63
2023-07-17T05:52:54.107Z,4.57
2023-07-17T05:55:47.666Z,4.95
2023-07-17T05:58:40.714Z,5.00
2023-07-17T06:01:35.924Z,5.10
2023-07-17T06:04:29.016Z,4.50
2023-07-17T06:07:22.011Z,5.30
2023-07-17T06:10:15.013Z,4.32
2023-07-17T06:13:08.445Z,4.05
2023-07-17T06:16:01.675Z,3.97
2023-07-17T06:18:57.111Z,4.18
2023-07-17T06:21:49.641Z,4.03
2023-07-17T06:24:43.974Z,4.35
2023-07-17T06:27:37.945Z,3.67
2023-07-17T06:30:30.782Z,4.35
2023-07-17T06:33:24.497Z,3.97
2023-07-17T06:36:19.205Z,4.43
2023-07-17T06:39:11.904Z,4.35
2023-07-17T06:42:05.652Z,4.07
2023-07-17T06:45:01.673Z,4.68
2023-07-17T06:47:54.978Z,4.45
2023-07-17T06:50:47.876Z,4.82
2023-07-17T06:53:43.478Z,4.90
2023-07-17T06:56:36.926Z,3.92
2023-07-17T06:59:30.341Z,4.18
2023-07-17T07:02:24.055Z,4.55
2023-07-17T07:05:17.442Z,4.78
2023-07-17T07:08:14.092Z,4.28
2023-07-17T07:11:08.433Z,4.22
2023-07-17T07:14:02.145Z,4.65
2023-07-17T07:16:55.122Z,5.15
2023-07-17T07:19:47.893Z,4.18
2023-07-17T07:22:40.823Z,4.47
2023-07-17T07:25:34.123Z,4.85
2023-07-17T07:28:28.350Z,5.60
2023-07-17T07:31:22.057Z,4.65
2023-07-17T07:34:15.118Z,4.70
2023-07-17T07:37:08.347Z,5.55
2023-07-17T07:40:02.217Z,4.45
2023-07-17T07:42:55.025Z,5.35
2023-07-17T07:45:49.373Z,4.60
2023-07-17T07:48:42.961Z,4.38
2023-07-17T07:51:39.155Z,4.78
2023-07-17T07:54:31.747Z,6.32
2023-07-17T07:57:25.613Z,5.15
2023-07-17T08:00:19.376Z,4.05
2023-07-17T08:03:14.470Z,4.43
2023-07-17T08:06:07.997Z,4.65
2023-07-17T08:09:01.166Z,4.13
2023-07-17T08:11:54.661Z,4.35
2023-07-17T08:14:48.015Z,4.38
2023-07-17T08:17:41.129Z,4.45
2023-07-17T08:20:35.575Z,3.97
2023-07-17T08:23:30.015Z,4.53
2023-07-17T08:26:22.873Z,4.30
2023-07-17T08:29:15.932Z,4.78
2023-07-17T08:32:10.918Z,4.65
2023-07-17T08:35:04.583Z,4.10
2023-07-17T08:37:59.242Z,4.10
2023-07-17T08:40:55.295Z,4.70
2023-07-17T08:43:50.168Z,4.70
2023-07-17T08:46:43.260Z,4.20
2023-07-17T08:49:37.705Z,4.80
2023-07-17T08:52:33.788Z,5.03
2023-07-17T08:55:32.427Z,4.18
2023-07-17T08:58:26.330Z,4.13
2023-07-17T09:01:19.557Z,4.55
2023-07-17T09:04:15.189Z,4.43
2023-07-17T09:07:08.154Z,4.03
2023-07-17T09:10:20.176Z,3.95
2023-07-17T09:13:15.452Z,4.80
2023-07-17T09:16:16.623Z,4.25
2023-07-17T09:19:13.009Z,3.88
2023-07-17T09:22:07.695Z,4.20
2023-07-17T09:25:01.055Z,4.47
2023-07-17T09:27:54.108Z,4.13
2023-07-17T09:31:02.054Z,3.65
2023-07-17T09:33:55.786Z,4.07
2023-07-17T09:36:55.871Z,3.63
2023-07-17T09:39:53.997Z,3.28
2023-07-17T09:42:52.795Z,3.60
2023-07-17T09:45:48.819Z,3.53
2023-07-17T09:48:42.074Z,3.28
2023-07-17T09:51:35.981Z,3.03
2023-07-17T09:54:29.801Z,3.28
2023-07-17T09:57:29.658Z,3.13
2023-07-17T10:00:26.117Z,3.90
2023-07-17T10:03:22.312Z,3.30
2023-07-17T10:06:17.719Z,3.38
2023-07-17T10:09:15.403Z,3.42
2023-07-17T10:12:09.532Z,3.15
2023-07-17T10:15:04.839Z,2.95
2023-07-17T10:17:59.493Z,3.38
2023-07-17T10:20:56.059Z,3.38
2023-07-17T10:23:50.686Z,3.70
2023-07-17T10:26:47.803Z,2.90
2023-07-17T10:29:46.026Z,3.72
2023-07-17T10:32:42.002Z,3.17
2023-07-17T10:35:48.646Z,3.45
2023-07-17T10:38:43.599Z,2.83
2023-07-17T10:41:38.596Z,3.10
2023-07-17T10:44:37.219Z,3.13
2023-07-17T10:47:29.988Z,2.95
2023-07-17T10:50:23.059Z,2.80
2023-07-17T10:53:16.159Z,3.25
2023-07-17T10:56:11.089Z,3.17
2023-07-17T10:59:05.324Z,3.35
2023-07-17T11:02:02.294Z,2.85
2023-07-17T11:04:55.870Z,3.20
2023-07-17T11:07:48.837Z,3.50
2023-07-17T11:10:44.856Z,2.97
2023-07-17T11:13:39.479Z,3.28
2023-07-17T11:16:34.521Z,2.65
2023-07-17T11:19:28.221Z,3.00
2023-07-17T11:22:21.054Z,2.63
2023-07-17T11:25:14.736Z,2.83
2023-07-17T11:28:08.107Z,3.13
2023-07-17T11:31:02.488Z,2.80
2023-07-17T11:33:59.846Z,2.92
2023-07-17T11:36:53.004Z,3.10
2023-07-17T11:39:46.104Z,2.80
2023-07-17T11:42:53.882Z,2.92
2023-07-17T11:45:47.582Z,3.03
2023-07-17T11:48:44.424Z,3.17
2023-07-17T11:51:45.986Z,2.72
2023-07-17T11:54:44.875Z,2.63
2023-07-17T11:57:38.839Z,2.83
2023-07-17T12:00:33.348Z,2.65
2023-07-17T12:03:26.811Z,3.42
2023-07-17T12:06:22.350Z,2.55
2023-07-17T12:09:15.289Z,2.78
2023-07-17T12:12:09.677Z,2.60
2023-07-17T12:15:03.454Z,2.88
2023-07-17T12:17:56.685Z,2.65
2023-07-17T12:20:51.266Z,2.50
2023-07-17T12:23:45.329Z,3.13
2023-07-17T12:26:38.092Z,2.85
2023-07-17T12:29:31.121Z,2.72
2023-07-17T12:32:24.457Z,2.78
2023-07-17T12:35:17.023Z,2.80
2023-07-17T12:38:10.566Z,2.50
2023-07-17T12:41:05.754Z,2.58
2023-07-17T12:43:59.455Z,3.00
2023-07-17T12:46:52.493Z,2.60
2023-07-17T12:49:45.398Z,3.03
2023-07-17T12:52:38.734Z,2.25
2023-07-17T12:55:32.487Z,2.17
2023-07-17T12:58:27.714Z,2.58
2023-07-17T13:01:21.508Z,2.53
2023-07-17T13:04:15.280Z,2.42
2023-07-17T13:07:07.902Z,2.10
2023-07-17T13:10:01.538Z,2.20
2023-07-17T13:12:54.812Z,2.92
2023-07-17T13:15:49.773Z,2.30
2023-07-17T13:18:43.974Z,2.33
2023-07-17T13:21:37.237Z,2.40
2023-07-17T13:24:30.122Z,2.50
2023-07-17T13:27:23.223Z,2.38
2023-07-17T13:30:16.308Z,2.20
2023-07-17T13:33:10.732Z,2.20
2023-07-17T13:36:06.313Z,2.10
2023-07-17T13:38:59.053Z,1.95
2023-07-17T13:41:54.031Z,2.17
2023-07-17T13:44:47.084Z,2.22
2023-07-17T13:47:40.446Z,2.10
2023-07-17T13:50:34.823Z,2.28
2023-07-17T13:53:28.476Z,2.22
2023-07-17T13:59:17.097Z,1.95
2023-07-17T14:02:10.423Z,2.25
2023-07-17T14:05:03.356Z,1.98
2023-07-17T14:07:57.625Z,2.00
2023-07-17T14:10:51.175Z,2.13
2023-07-17T14:13:44.278Z,2.38
2023-07-17T14:16:37.182Z,2.10
2023-07-17T14:19:30.092Z,1.80
2023-07-17T14:22:23.616Z,2.35
2023-07-17T14:25:18.755Z,2.30
2023-07-17T14:28:15.789Z,2.33
2023-07-17T14:31:09.248Z,2.08
2023-07-17T14:34:02.492Z,2.13
2023-07-17T14:36:55.219Z,2.00
2023-07-17T14:39:48.069Z,1.70
2023-07-17T14:42:42.587Z,1.92
2023-07-17T14:45:35.670Z,2.25
2023-07-17T14:48:29.354Z,2.13
2023-07-17T14:51:22.654Z,2.42
2023-07-17T14:54:15.705Z,2.20
2023-07-17T14:57:10.282Z,2.35
2023-07-17T15:00:05.318Z,1.73
2023-07-17T15:02:58.610Z,1.85
2023-07-17T15:05:51.024Z,2.40
2023-07-17T15:08:44.149Z,1.83
2023-07-17T15:11:37.476Z,2.05
2023-07-17T15:14:30.452Z,2.10
2023-07-17T15:17:24.435Z,2.00
2023-07-17T15:20:17.497Z,1.80
2023-07-17T15:23:10.533Z,2.05
2023-07-17T15:26:03.489Z,2.10
2023-07-17T15:28:56.579Z,2.00
2023-07-17T15:31:49.509Z,1.90
2023-07-17T15:34:43.489Z,2.13
2023-07-17T15:37:37.034Z,1.98
2023-07-17T15:40:31.656Z,1.80
2023-07-17T15:43:24.765Z,1.95
2023-07-17T15:46:19.007Z,2.22
2023-07-17T15:49:12.660Z,1.88
2023-07-17T15:52:07.538Z,1.83
2023-07-17T15:55:00.598Z,1.98
2023-07-17T15:57:53.323Z,2.00
2023-07-17T16:00:46.606Z,1.85
2023-07-17T16:03:39.473Z,1.80
2023-07-17T16:06:32.163Z,1.90
2023-07-17T16:09:26.902Z,1.83
2023-07-17T16:12:23.884Z,1.80
2023-07-17T16:15:18.436Z,1.80
2023-07-17T16:18:11.434Z,1.65
2023-07-17T16:21:04.466Z,1.85
2023-07-17T16:23:57.337Z,1.70
2023-07-17T16:26:51.568Z,1.70
2023-07-17T16:29:46.065Z,2.10
2023-07-17T16:32:39.362Z,1.88
2023-07-17T16:35:32.699Z,1.80
2023-07-17T16:38:25.409Z,2.00
2023-07-17T16:41:19.270Z,1.95
2023-07-17T16:44:13.538Z,1.85
2023-07-17T16:47:07.251Z,1.90
2023-07-17T16:50:00.447Z,1.90
2023-07-17T16:52:53.649Z,2.00
2023-07-17T16:55:46.426Z,1.55
2023-07-17T16:58:39.617Z,1.75
2023-07-17T17:01:34.676Z,1.67
2023-07-17T17:04:27.944Z,1.70
2023-07-17T17:07:21.149Z,1.80
2023-07-17T17:10:14.956Z,1.50
2023-07-17T17:13:08.481Z,1.92
2023-07-17T17:16:01.272Z,1.55
2023-07-17T17:18:55.789Z,1.48
2023-07-17T17:21:49.422Z,1.60
2023-07-17T17:24:42.346Z,1.60
2023-07-17T17:27:35.959Z,1.90
2023-07-17T17:30:29.780Z,1.60
2023-07-17T17:33:24.625Z,1.92
2023-07-17T17:36:18.935Z,1.60
2023-07-17T17:39:13.012Z,1.63
2023-07-17T17:42:07.350Z,1.40
2023-07-17T17:45:04.985Z,1.63
2023-07-17T17:47:58.292Z,1.65
2023-07-17T17:50:52.411Z,1.63
2023-07-17T17:53:46.921Z,1.70
2023-07-17T17:56:40.505Z,1.88
2023-07-17T17:59:33.860Z,1.60
2023-07-17T18:02:28.040Z,1.65
2023-07-17T18:05:21.812Z,1.55
2023-07-17T18:08:15.615Z,1.35
2023-07-17T18:11:09.988Z,1.50
2023-07-17T18:14:09.993Z,1.83
2023-07-17T18:17:03.796Z,1.40
2023-07-17T18:19:56.517Z,1.48
2023-07-17T18:22:49.502Z,1.70
2023-07-17T18:25:42.620Z,1.52
2023-07-17T18:28:36.792Z,1.77
2023-07-17T18:31:29.356Z,1.55
2023-07-17T18:34:22.957Z,1.55
2023-07-17T18:37:16.500Z,1.60
2023-07-17T18:40:11.128Z,1.40
2023-07-17T18:43:05.825Z,1.58
2023-07-17T18:46:00.848Z,1.42
2023-07-17T18:48:54.475Z,1.25
2023-07-17T18:51:47.745Z,1.67
2023-07-17T18:54:40.506Z,1.67
2023-07-17T18:57:33.524Z,1.42
2023-07-17T19:00:27.484Z,1.63
2023-07-17T19:03:22.049Z,1.50
2023-07-17T19:06:16.042Z,1.50
2023-07-17T19:09:09.804Z,1.45
2023-07-17T19:12:04.493Z,1.60
2023-07-17T19:14:58.576Z,1.65
2023-07-17T19:17:51.965Z,1.60
2023-07-17T19:20:46.589Z,1.70
2023-07-17T19:23:42.618Z,1.58
2023-07-17T19:26:35.654Z,1.30
2023-07-17T19:29:29.044Z,1.65
2023-07-17T19:32:25.360Z,1.40
2023-07-17T19:35:18.452Z,1.27
2023-07-17T19:38:12.924Z,1.42
2023-07-17T19:41:06.528Z,1.40
2023-07-17T19:43:59.710Z,1.55
2023-07-17T19:46:52.606Z,1.50
2023-07-17T19:49:45.751Z,1.70
2023-07-17T19:52:39.399Z,1.27
2023-07-17T19:55:34.104Z,1.50
2023-07-17T19:58:31.002Z,1.77
2023-07-17T20:01:24.627Z,1.50
2023-07-17T20:04:18.016Z,1.48
2023-07-17T20:07:11.476Z,1.15
2023-07-17T20:10:05.480Z,1.30
2023-07-17T20:12:59.986Z,1.58
2023-07-17T20:15:53.679Z,1.40
2023-07-17T20:18:46.767Z,1.52
2023-07-17T20:21:39.945Z,1.27
2023-07-17T20:24:33.262Z,1.55
2023-07-17T20:27:26.652Z,1.30
2023-07-17T20:30:20.661Z,1.48
2023-07-17T20:33:14.073Z,1.35
2023-07-17T20:36:07.610Z,1.30
2023-07-17T20:39:00.493Z,1.23
2023-07-17T20:41:54.075Z,1.55
2023-07-17T20:44:47.849Z,1.20
2023-07-17T20:47:42.088Z,1.27
2023-07-17T20:50:35.529Z,1.45
2023-07-17T20:53:28.598Z,1.30
2023-07-17T20:56:21.503Z,1.60
2023-07-17T20:59:14.627Z,0.98
2023-07-17T21:02:08.421Z,1.40
2023-07-17T21:05:03.119Z,1.55
2023-07-17T21:07:56.641Z,1.15
2023-07-17T21:10:51.693Z,1.20
2023-07-17T21:13:44.340Z,1.50
2023-07-17T21:16:37.662Z,1.38
2023-07-17T21:19:31.473Z,1.73
2023-07-17T21:22:26.977Z,1.10
2023-07-17T21:25:21.068Z,1.40
2023-07-17T21:28:14.885Z,1.48
2023-07-17T21:31:08.526Z,1.50
2023-07-17T21:34:02.272Z,1.25
2023-07-17T21:36:55.602Z,1.40
2023-07-17T21:39:49.996Z,1.42
2023-07-17T21:42:44.064Z,1.20
2023-07-17T21:45:37.712Z,1.20
2023-07-17T21:48:30.538Z,1.38
2023-07-17T21:51:23.702Z,1.23
2023-07-17T21:54:16.759Z,1.15
2023-07-17T21:57:10.829Z,1.20
2023-07-17T22:00:04.986Z,1.17
2023-07-17T22:02:57.420Z,1.25
2023-07-17T22:05:50.692Z,1.48
2023-07-17T22:08:43.776Z,0.90
2023-07-17T22:11:36.649Z,1.25
2023-07-17T22:14:30.911Z,1.10
2023-07-17T22:17:24.867Z,1.33
2023-07-17T22:20:17.873Z,1.13
2023-07-17T22:23:11.063Z,1.30
2023-07-17T22:26:04.919Z,1.10
2023-07-17T22:28:57.874Z,1.40
2023-07-17T22:31:51.818Z,1.13
2023-07-17T22:34:46.701Z,1.05
2023-07-17T22:37:39.471Z,1.23
2023-07-17T22:40:33.519Z,1.30
2023-07-17T22:43:26.787Z,1.10
2023-07-17T22:46:20.090Z,1.10
2023-07-17T22:49:15.418Z,1.13
2023-07-17T22:52:09.578Z,1.20
2023-07-17T22:55:03.587Z,1.13
2023-07-17T22:57:57.097Z,1.40
2023-07-17T23:00:50.818Z,1.00
2023-07-17T23:03:43.904Z,1.10
2023-07-17T23:06:38.148Z,1.40
2023-07-17T23:09:33.353Z,1.17
2023-07-17T23:12:27.068Z,1.77
2023-07-17T23:15:21.387Z,1.33
2023-07-17T23:18:14.884Z,1.33
2023-07-17T23:21:09.029Z,1.20
2023-07-17T23:24:04.256Z,1.35
2023-07-17T23:26:58.198Z,1.25
2023-07-17T23:29:51.896Z,1.30
2023-07-17T23:32:44.892Z,1.17
2023-07-17T23:35:38.890Z,1.15
2023-07-17T23:38:32.537Z,1.58
2023-07-17T23:41:27.105Z,1.65
2023-07-17T23:44:21.085Z,1.08
2023-07-17T23:47:14.807Z,1.08
2023-07-17T23:50:08.633Z,1.10
2023-07-17T23:53:01.710Z,1.20
2023-07-17T23:55:54.962Z,0.93
2023-07-17T23:58:49.234Z,1.30
